createdAt,value
2023-01-20T00:01:20.184Z,10.20
2023-01-20T00:03:48.027Z,9.37
2023-01-20T00:06:14.743Z,9.03
2023-01-20T00:08:41.628Z,9.40
2023-01-20T00:11:10.363Z,9.07
2023-01-20T00:13:37.391Z,9.27
2023-01-20T00:16:06.277Z,9.10
2023-01-20T00:18:34.871Z,8.47
2023-01-20T00:21:09.957Z,8.83
2023-01-20T00:23:36.821Z,9.17
2023-01-20T00:26:05.854Z,9.03
2023-01-20T00:28:33.403Z,9.50
2023-01-20T00:31:19.448Z,8.63
2023-01-20T00:33:47.412Z,8.93
2023-01-20T00:36:16.008Z,8.90
2023-01-20T00:38:42.933Z,10.13
2023-01-20T00:41:10.328Z,8.90
2023-01-20T00:43:37.093Z,9.67
2023-01-20T00:46:04.931Z,9.87
2023-01-20T00:48:31.802Z,10.03
2023-01-20T00:50:58.671Z,9.43
2023-01-20T00:53:25.461Z,10.27
2023-01-20T00:55:52.102Z,10.07
2023-01-20T00:58:18.801Z,9.27
2023-01-20T01:00:53.059Z,8.53
2023-01-20T01:03:20.064Z,8.27
2023-01-20T01:05:47.138Z,8.83
2023-01-20T01:08:14.115Z,8.60
2023-01-20T01:10:41.080Z,9.07
2023-01-20T01:13:08.689Z,9.67
2023-01-20T01:15:36.076Z,9.33
2023-01-20T01:18:03.517Z,8.70
2023-01-20T01:20:30.999Z,8.87
2023-01-20T01:22:57.685Z,7.93
2023-01-20T01:25:24.531Z,8.30
2023-01-20T01:27:51.064Z,10.10
2023-01-20T01:30:17.736Z,8.87
2023-01-20T01:32:44.342Z,9.53
2023-01-20T01:35:11.077Z,8.00
2023-01-20T01:37:37.723Z,8.93
2023-01-20T01:40:05.034Z,8.33
2023-01-20T01:42:31.678Z,8.70
2023-01-20T01:45:10.206Z,8.37
2023-01-20T01:47:40.307Z,7.87
2023-01-20T01:50:09.092Z,7.83
2023-01-20T01:52:35.881Z,8.20
2023-01-20T01:55:03.624Z,7.70
2023-01-20T01:57:31.871Z,6.97
2023-01-20T01:59:58.464Z,6.57
2023-01-20T02:02:25.239Z,7.27
2023-01-20T02:04:51.822Z,6.57
2023-01-20T02:07:20.753Z,7.67
2023-01-20T02:09:47.610Z,7.33
2023-01-20T02:12:20.760Z,7.67
2023-01-20T02:14:53.988Z,8.00
2023-01-20T02:17:45.350Z,8.87
2023-01-20T02:20:27.198Z,7.70
2023-01-20T02:23:02.624Z,8.33
2023-01-20T02:25:41.323Z,8.20
2023-01-20T02:28:49.287Z,8.17
2023-01-20T02:31:42.132Z,8.47
2023-01-20T02:34:17.769Z,8.90
2023-01-20T02:36:54.363Z,8.00
2023-01-20T02:39:45.572Z,7.97
2023-01-20T02:42:27.329Z,7.53
2023-01-20T02:44:59.483Z,8.33
2023-01-20T02:47:35.474Z,8.27
2023-01-20T02:50:09.948Z,7.63
2023-01-20T02:52:42.102Z,8.07
2023-01-20T02:55:13.895Z,7.83
2023-01-20T02:57:46.534Z,7.50
2023-01-20T03:00:20.780Z,7.27
2023-01-20T03:02:51.285Z,7.70
2023-01-20T03:05:23.284Z,7.20
2023-01-20T03:07:51.996Z,7.60
2023-01-20T03:10:21.959Z,7.90
2023-01-20T03:12:54.338Z,8.23
2023-01-20T03:15:25.284Z,7.80
2023-01-20T03:17:52.723Z,8.33
2023-01-20T03:20:19.400Z,8.20
2023-01-20T03:22:46.047Z,8.20
2023-01-20T03:25:14.426Z,8.00
2023-01-20T03:27:42.209Z,7.73
2023-01-20T03:30:16.738Z,7.20
2023-01-20T03:32:46.308Z,7.57
2023-01-20T03:35:16.419Z,8.87
2023-01-20T03:37:44.265Z,8.17
2023-01-20T03:40:12.405Z,8.73
2023-01-20T03:43:01.600Z,8.30
2023-01-20T03:45:51.971Z,8.27
2023-01-20T03:48:40.258Z,7.97
2023-01-20T03:51:15.350Z,7.83
2023-01-20T03:53:48.319Z,7.80
2023-01-20T03:56:20.563Z,7.43
2023-01-20T03:58:51.754Z,7.70
2023-01-20T04:01:23.460Z,8.97
2023-01-20T04:03:54.539Z,8.93
2023-01-20T04:06:26.230Z,8.43
2023-01-20T04:08:58.891Z,9.40
2023-01-20T04:11:27.141Z,10.20
2023-01-20T04:13:54.063Z,9.10
2023-01-20T04:16:21.891Z,10.47
2023-01-20T04:18:51.033Z,10.47
2023-01-20T04:21:32.640Z,9.40
2023-01-20T04:24:12.928Z,10.13
2023-01-20T04:26:39.606Z,9.23
2023-01-20T04:29:10.533Z,9.10
2023-01-20T04:31:39.685Z,8.77
2023-01-20T04:34:06.486Z,9.63
2023-01-20T04:36:33.067Z,9.80
2023-01-20T04:38:59.606Z,8.17
2023-01-20T04:41:26.167Z,7.87
2023-01-20T04:43:52.744Z,9.13
2023-01-20T04:46:19.369Z,8.87
2023-01-20T04:48:46.362Z,10.43
2023-01-20T04:51:13.601Z,10.90
2023-01-20T04:53:40.254Z,11.37
2023-01-20T04:56:15.003Z,11.17
2023-01-20T04:58:42.835Z,11.57
2023-01-20T05:01:09.579Z,13.13
2023-01-20T05:03:36.532Z,10.93
2023-01-20T05:06:03.321Z,10.17
2023-01-20T05:08:30.010Z,10.67
2023-01-20T05:10:56.573Z,9.97
2023-01-20T05:13:23.301Z,9.73
2023-01-20T05:15:49.949Z,9.57
2023-01-20T05:18:16.533Z,10.20
2023-01-20T05:20:45.495Z,9.80
2023-01-20T05:23:12.079Z,11.70
2023-01-20T05:25:38.749Z,14.20
2023-01-20T05:28:05.325Z,15.23
2023-01-20T05:30:32.437Z,15.80
2023-01-20T05:32:59.136Z,15.17
2023-01-20T05:35:26.132Z,14.60
2023-01-20T05:37:54.704Z,14.73
2023-01-20T05:40:21.986Z,14.30
2023-01-20T05:42:48.557Z,13.57
2023-01-20T05:45:15.367Z,13.13
2023-01-20T05:47:42.103Z,12.97
2023-01-20T05:50:09.296Z,11.93
2023-01-20T05:52:35.825Z,12.37
2023-01-20T05:55:02.431Z,12.00
2023-01-20T05:57:28.987Z,15.30
2023-01-20T05:59:55.773Z,12.50
2023-01-20T06:02:22.387Z,11.40
2023-01-20T06:04:49.278Z,11.67
2023-01-20T06:07:15.980Z,11.77
2023-01-20T06:09:42.667Z,11.60
2023-01-20T06:12:09.215Z,11.53
2023-01-20T06:14:35.834Z,10.97
2023-01-20T06:17:02.388Z,11.97
2023-01-20T06:19:28.963Z,12.07
2023-01-20T06:21:55.511Z,11.93
2023-01-20T06:24:22.094Z,11.37
2023-01-20T06:26:51.040Z,11.93
2023-01-20T06:29:17.787Z,11.53
2023-01-20T06:31:45.542Z,11.33
2023-01-20T06:34:12.563Z,9.53
2023-01-20T06:36:39.586Z,10.47
2023-01-20T06:39:06.654Z,9.87
2023-01-20T06:41:33.699Z,9.27
2023-01-20T06:44:00.302Z,9.77
2023-01-20T06:46:27.012Z,10.63
2023-01-20T06:49:00.276Z,10.60
2023-01-20T06:51:29.561Z,11.83
2023-01-20T06:53:56.831Z,12.13
2023-01-20T06:56:24.057Z,10.83
2023-01-20T06:58:51.515Z,12.03
2023-01-20T07:01:38.683Z,13.63
2023-01-20T07:04:06.563Z,13.13
2023-01-20T07:06:38.436Z,13.73
2023-01-20T07:09:06.740Z,12.80
2023-01-20T07:11:35.136Z,12.20
2023-01-20T07:14:02.524Z,12.77
2023-01-20T07:16:29.486Z,12.63
2023-01-20T07:18:56.490Z,13.17
2023-01-20T07:21:26.288Z,12.73
2023-01-20T07:23:53.411Z,12.50
2023-01-20T07:26:22.175Z,11.77
2023-01-20T07:28:49.032Z,10.83
2023-01-20T07:31:21.216Z,10.33
2023-01-20T07:33:48.108Z,9.97
2023-01-20T07:36:16.276Z,10.37
2023-01-20T07:38:43.380Z,9.27
2023-01-20T07:41:16.006Z,10.37
2023-01-20T07:43:44.025Z,11.10
2023-01-20T07:46:11.585Z,10.20
2023-01-20T07:48:38.491Z,9.00
2023-01-20T07:51:07.439Z,8.73
2023-01-20T07:53:37.140Z,8.83
2023-01-20T07:56:10.081Z,8.87
2023-01-20T07:58:36.721Z,9.20
2023-01-20T08:01:20.920Z,8.60
2023-01-20T08:03:47.996Z,8.63
2023-01-20T08:06:17.546Z,9.83
2023-01-20T08:08:44.197Z,8.90
2023-01-20T08:11:13.675Z,9.33
2023-01-20T08:13:40.563Z,10.97
2023-01-20T08:16:10.181Z,11.93
2023-01-20T08:18:37.219Z,12.60
2023-01-20T08:21:07.019Z,13.20
2023-01-20T08:23:34.620Z,11.33
2023-01-20T08:26:03.618Z,12.80
2023-01-20T08:28:31.040Z,11.47
2023-01-20T08:31:12.602Z,10.30
2023-01-20T08:33:42.177Z,9.90
2023-01-20T08:36:11.932Z,11.37
2023-01-20T08:38:38.975Z,12.03
2023-01-20T08:41:15.033Z,12.93
2023-01-20T08:43:41.850Z,15.23
2023-01-20T08:46:11.527Z,14.40
2023-01-20T08:48:39.763Z,16.83
2023-01-20T08:51:14.107Z,13.67
2023-01-20T08:53:40.892Z,15.90
2023-01-20T08:56:07.974Z,12.43
2023-01-20T08:58:34.912Z,11.70
2023-01-20T09:01:02.286Z,12.23
2023-01-20T09:03:28.839Z,12.53
2023-01-20T09:05:55.443Z,9.83
2023-01-20T09:08:22.357Z,9.60
2023-01-20T09:10:48.926Z,8.60
2023-01-20T09:13:15.495Z,9.30
2023-01-20T09:15:42.158Z,13.67
2023-01-20T09:18:08.742Z,22.80
2023-01-20T09:20:35.304Z,9.93
2023-01-20T09:23:02.921Z,10.33
2023-01-20T09:25:29.626Z,9.77
2023-01-20T09:27:56.210Z,9.00
2023-01-20T09:30:22.819Z,8.00
2023-01-20T09:32:53.111Z,8.13
2023-01-20T09:35:20.433Z,7.93
2023-01-20T09:38:05.763Z,7.10
2023-01-20T09:41:01.562Z,6.90
2023-01-20T09:43:56.195Z,7.30
2023-01-20T09:47:06.839Z,7.27
2023-01-20T09:50:31.003Z,7.80
2023-01-20T09:53:20.545Z,8.20
2023-01-20T09:55:50.029Z,8.10
2023-01-20T09:58:25.708Z,8.10
2023-01-20T10:01:06.812Z,7.37
2023-01-20T10:03:56.975Z,8.13
2023-01-20T10:06:43.429Z,7.97
2023-01-20T10:09:23.861Z,8.60
2023-01-20T10:11:56.121Z,7.03
2023-01-20T10:14:34.590Z,7.30
2023-01-20T10:17:19.661Z,7.00
2023-01-20T10:19:54.527Z,7.63
2023-01-20T10:22:32.282Z,7.10
2023-01-20T10:25:09.107Z,7.77
2023-01-20T10:27:39.301Z,6.50
2023-01-20T10:30:10.956Z,6.63
2023-01-20T10:32:41.019Z,6.70
2023-01-20T10:35:16.232Z,6.57
2023-01-20T10:37:43.196Z,6.87
2023-01-20T10:40:43.134Z,6.80
2023-01-20T10:43:15.443Z,7.23
2023-01-20T10:45:57.242Z,6.40
2023-01-20T10:48:54.498Z,6.60
2023-01-20T10:51:34.492Z,5.90
2023-01-20T10:54:14.743Z,6.90
2023-01-20T10:56:53.400Z,6.70
2023-01-20T10:59:31.443Z,6.03
2023-01-20T11:02:12.800Z,5.87
2023-01-20T11:04:40.956Z,5.47
2023-01-20T11:07:16.183Z,5.57
2023-01-20T11:09:43.199Z,5.97
2023-01-20T11:12:20.429Z,6.80
2023-01-20T11:14:47.695Z,5.40
2023-01-20T11:17:18.062Z,5.90
2023-01-20T11:20:03.992Z,5.87
2023-01-20T11:22:34.253Z,7.20
2023-01-20T11:25:04.067Z,5.63
2023-01-20T11:27:45.990Z,6.33
2023-01-20T11:30:31.231Z,6.57
2023-01-20T11:33:28.304Z,5.20
2023-01-20T11:36:16.395Z,5.73
2023-01-20T11:38:46.348Z,7.23
2023-01-20T11:41:31.551Z,5.40
2023-01-20T11:44:00.093Z,5.70
2023-01-20T11:46:28.619Z,5.83
2023-01-20T11:49:15.864Z,6.90
2023-01-20T11:51:46.902Z,5.43
2023-01-20T11:54:31.464Z,6.63
2023-01-20T11:57:05.193Z,8.13
2023-01-20T11:59:35.463Z,6.07
2023-01-20T12:02:05.013Z,7.93
2023-01-20T12:04:43.569Z,6.57
2023-01-20T12:07:19.688Z,5.33
2023-01-20T12:09:51.182Z,8.40
2023-01-20T12:12:24.533Z,8.33
2023-01-20T12:15:18.910Z,6.20
2023-01-20T12:18:09.622Z,6.30
2023-01-20T12:20:54.464Z,7.60
2023-01-20T12:23:52.512Z,6.67
2023-01-20T12:26:21.699Z,6.70
2023-01-20T12:29:09.835Z,6.77
2023-01-20T12:31:36.472Z,5.97
2023-01-20T12:34:10.490Z,5.63
2023-01-20T12:36:57.993Z,6.87
2023-01-20T12:39:40.040Z,7.83
2023-01-20T12:42:09.865Z,7.20
2023-01-20T12:44:55.115Z,7.07
2023-01-20T12:48:08.104Z,8.27
2023-01-20T12:50:43.344Z,7.13
2023-01-20T12:53:22.238Z,6.57
2023-01-20T12:55:57.126Z,8.57
2023-01-20T12:58:36.984Z,7.17
2023-01-20T13:01:20.921Z,7.23
2023-01-20T13:04:22.427Z,9.00
2023-01-20T13:07:23.629Z,12.00
2023-01-20T13:10:14.635Z,6.63
2023-01-20T13:13:02.677Z,17.13
2023-01-20T13:15:55.765Z,11.80
2023-01-20T13:18:35.194Z,12.63
2023-01-20T13:21:01.765Z,6.83
2023-01-20T13:23:36.933Z,9.17
2023-01-20T13:26:05.846Z,9.53
2023-01-20T13:28:32.816Z,10.40
2023-01-20T13:31:01.370Z,10.47
2023-01-20T13:33:38.617Z,9.13
2023-01-20T13:36:23.356Z,7.53
2023-01-20T13:39:11.017Z,7.17
2023-01-20T13:41:56.240Z,8.87
2023-01-20T13:44:42.169Z,11.40
2023-01-20T13:47:10.723Z,7.13
2023-01-20T13:49:55.521Z,11.13
2023-01-20T13:52:52.024Z,12.77
2023-01-20T13:55:49.937Z,13.03
2023-01-20T13:58:32.452Z,12.07
2023-01-20T14:01:01.868Z,12.73
2023-01-20T14:03:30.192Z,9.37
2023-01-20T14:06:11.276Z,8.97
2023-01-20T14:08:49.769Z,9.83
2023-01-20T14:11:19.016Z,9.73
2023-01-20T14:13:53.000Z,9.50
2023-01-20T14:16:36.282Z,9.53
2023-01-20T14:19:34.017Z,9.20
2023-01-20T14:22:04.090Z,10.37
2023-01-20T14:24:33.672Z,10.00
2023-01-20T14:27:17.725Z,11.53
2023-01-20T14:29:45.075Z,12.80
2023-01-20T14:32:34.132Z,14.07
2023-01-20T14:35:02.197Z,12.93
2023-01-20T14:37:31.551Z,11.03
2023-01-20T14:40:01.441Z,14.47
2023-01-20T14:42:29.810Z,13.60
2023-01-20T14:44:57.620Z,11.87
2023-01-20T14:47:26.313Z,11.63
2023-01-20T14:49:54.218Z,10.93
2023-01-20T14:52:26.379Z,11.03
2023-01-20T14:54:56.164Z,11.33
2023-01-20T14:57:27.652Z,11.80
2023-01-20T15:00:12.547Z,15.33
2023-01-20T15:02:40.909Z,9.40
2023-01-20T15:05:29.012Z,9.80
2023-01-20T15:08:32.528Z,9.33
2023-01-20T15:11:14.782Z,7.67
2023-01-20T15:13:43.323Z,7.60
2023-01-20T15:16:12.602Z,8.30
2023-01-20T15:18:39.960Z,7.50
2023-01-20T15:21:26.021Z,7.10
2023-01-20T15:23:52.878Z,7.53
2023-01-20T15:26:28.946Z,6.50
2023-01-20T15:28:57.313Z,8.20
2023-01-20T15:31:24.701Z,5.70
2023-01-20T15:33:51.424Z,6.37
2023-01-20T15:36:24.403Z,6.80
2023-01-20T15:38:51.016Z,7.10
2023-01-20T15:41:18.528Z,7.23
2023-01-20T15:43:45.794Z,6.53
2023-01-20T15:46:14.567Z,5.57
2023-01-20T15:48:42.477Z,5.07
2023-01-20T15:51:14.947Z,5.50
2023-01-20T15:53:41.624Z,4.43
2023-01-20T15:56:29.666Z,4.70
2023-01-20T15:58:57.596Z,5.07
2023-01-20T16:01:26.484Z,4.27
2023-01-20T16:03:56.733Z,3.87
2023-01-20T16:06:29.564Z,4.30
2023-01-20T16:08:56.644Z,4.10
2023-01-20T16:11:23.380Z,4.37
2023-01-20T16:13:50.096Z,4.17
2023-01-20T16:16:22.801Z,3.60
2023-01-20T16:18:49.607Z,3.90
2023-01-20T16:21:18.745Z,3.70
2023-01-20T16:23:45.570Z,4.27
2023-01-20T16:26:29.301Z,3.67
2023-01-20T16:28:57.720Z,5.40
2023-01-20T16:31:26.162Z,3.70
2023-01-20T16:33:54.162Z,3.90
2023-01-20T16:36:22.366Z,4.03
2023-01-20T16:38:49.959Z,3.73
2023-01-20T16:41:27.475Z,3.37
2023-01-20T16:43:55.562Z,3.33
2023-01-20T16:46:28.013Z,3.20
2023-01-20T16:48:59.355Z,3.50
2023-01-20T16:51:26.624Z,3.30
2023-01-20T16:53:53.986Z,3.33
2023-01-20T16:56:24.023Z,3.33
2023-01-20T16:58:52.557Z,3.70
2023-01-20T17:01:23.613Z,3.33
2023-01-20T17:03:56.408Z,3.00
2023-01-20T17:06:29.950Z,2.93
2023-01-20T17:08:58.244Z,3.47
2023-01-20T17:11:31.022Z,3.10
2023-01-20T17:13:59.028Z,3.00
2023-01-20T17:16:26.267Z,3.00
2023-01-20T17:18:55.251Z,3.53
2023-01-20T17:21:23.396Z,3.47
2023-01-20T17:23:51.603Z,3.80
2023-01-20T17:26:19.161Z,3.90
2023-01-20T17:28:46.195Z,3.67
2023-01-20T17:31:13.070Z,3.60
2023-01-20T17:33:44.882Z,3.23
2023-01-20T17:36:11.991Z,2.80
2023-01-20T17:38:41.436Z,2.60
2023-01-20T17:41:08.751Z,3.03
2023-01-20T17:43:37.785Z,2.93
2023-01-20T17:46:22.536Z,3.10
2023-01-20T17:48:49.852Z,2.90
2023-01-20T17:51:24.972Z,2.50
2023-01-20T17:53:52.334Z,3.10
2023-01-20T17:56:21.853Z,2.77
2023-01-20T17:58:49.348Z,2.83
2023-01-20T18:01:21.088Z,3.10
2023-01-20T18:03:50.231Z,2.70
2023-01-20T18:06:19.205Z,2.97
2023-01-20T18:08:51.548Z,2.60
2023-01-20T18:11:21.769Z,2.60
2023-01-20T18:13:53.406Z,2.87
2023-01-20T18:16:22.303Z,2.80
2023-01-20T18:18:50.176Z,2.67
2023-01-20T18:21:16.703Z,2.60
2023-01-20T18:23:44.278Z,2.60
2023-01-20T18:26:13.802Z,2.90
2023-01-20T18:28:41.311Z,2.87
2023-01-20T18:31:10.707Z,2.77
2023-01-20T18:33:40.337Z,2.50
2023-01-20T18:36:09.085Z,2.50
2023-01-20T18:38:35.845Z,3.07
2023-01-20T18:41:03.170Z,3.30
2023-01-20T18:43:30.311Z,2.97
2023-01-20T18:45:56.912Z,3.20
2023-01-20T18:48:25.239Z,3.23
2023-01-20T18:50:52.606Z,2.97
2023-01-20T18:53:19.201Z,2.77
2023-01-20T18:55:45.840Z,2.53
2023-01-20T18:58:16.296Z,2.63
2023-01-20T19:00:43.832Z,2.60
2023-01-20T19:03:10.422Z,2.70
2023-01-20T19:05:37.029Z,2.97
2023-01-20T19:08:05.087Z,2.90
2023-01-20T19:10:31.845Z,2.37
2023-01-20T19:12:58.427Z,2.47
2023-01-20T19:15:25.027Z,2.70
2023-01-20T19:17:51.966Z,2.40
2023-01-20T19:20:18.712Z,2.00
2023-01-20T19:22:45.298Z,2.03
2023-01-20T19:25:12.003Z,2.00
2023-01-20T19:27:38.581Z,2.20
2023-01-20T19:30:05.986Z,2.30
2023-01-20T19:32:32.591Z,1.83
2023-01-20T19:34:59.145Z,1.90
2023-01-20T19:37:25.868Z,2.07
2023-01-20T19:39:52.421Z,2.77
2023-01-20T19:42:18.999Z,3.13
2023-01-20T19:44:45.538Z,3.33
2023-01-20T19:47:12.080Z,3.67
2023-01-20T19:49:38.616Z,3.73
2023-01-20T19:52:05.508Z,3.53
2023-01-20T19:54:33.361Z,3.47
2023-01-20T19:57:00.455Z,5.03
2023-01-20T19:59:27.072Z,4.30
2023-01-20T20:01:53.741Z,4.10
2023-01-20T20:04:20.667Z,3.60
2023-01-20T20:06:48.795Z,3.87
2023-01-20T20:09:18.638Z,3.80
2023-01-20T20:11:45.504Z,4.00
2023-01-20T20:14:14.789Z,4.27
2023-01-20T20:16:41.889Z,3.87
2023-01-20T20:19:11.939Z,3.57
2023-01-20T20:21:38.593Z,3.80
2023-01-20T20:24:05.462Z,4.13
2023-01-20T20:26:35.149Z,4.23
2023-01-20T20:29:03.490Z,4.13
2023-01-20T20:31:30.396Z,4.03
2023-01-20T20:34:01.778Z,4.23
2023-01-20T20:36:30.855Z,3.93
2023-01-20T20:39:01.126Z,4.00
2023-01-20T20:41:31.057Z,3.80
2023-01-20T20:43:59.128Z,4.10
2023-01-20T20:46:26.461Z,3.77
2023-01-20T20:48:54.773Z,3.77
2023-01-20T20:51:23.753Z,3.80
2023-01-20T20:53:54.022Z,3.13
2023-01-20T20:56:21.457Z,3.67
2023-01-20T20:59:00.519Z,3.93
2023-01-20T21:01:29.179Z,4.70
2023-01-20T21:03:57.717Z,4.77
2023-01-20T21:06:25.131Z,4.53
2023-01-20T21:08:52.234Z,4.47
2023-01-20T21:11:20.207Z,4.70
2023-01-20T21:13:49.219Z,5.03
2023-01-20T21:16:20.731Z,5.00
2023-01-20T21:18:47.781Z,5.03
2023-01-20T21:21:17.053Z,5.40
2023-01-20T21:23:48.531Z,4.80
2023-01-20T21:26:15.417Z,4.80
2023-01-20T21:28:42.991Z,4.90
2023-01-20T21:31:11.518Z,5.57
2023-01-20T21:33:38.911Z,5.43
2023-01-20T21:36:07.279Z,5.47
2023-01-20T21:38:33.936Z,5.40
2023-01-20T21:41:09.855Z,5.77
2023-01-20T21:43:57.742Z,5.30
2023-01-20T21:46:25.423Z,6.07
2023-01-20T21:49:10.642Z,5.80
2023-01-20T21:51:56.058Z,6.40
2023-01-20T21:54:22.969Z,6.50
2023-01-20T21:56:51.346Z,5.50
2023-01-20T21:59:18.152Z,6.00
2023-01-20T22:01:44.710Z,5.53
2023-01-20T22:04:11.306Z,6.10
2023-01-20T22:06:37.904Z,5.80
2023-01-20T22:09:04.572Z,6.00
2023-01-20T22:11:31.292Z,5.93
2023-01-20T22:13:57.886Z,6.33
2023-01-20T22:16:25.584Z,6.00
2023-01-20T22:18:53.287Z,5.67
2023-01-20T22:21:21.491Z,6.27
2023-01-20T22:23:48.601Z,6.53
2023-01-20T22:26:15.186Z,6.10
2023-01-20T22:28:41.789Z,6.90
2023-01-20T22:31:13.164Z,6.83
2023-01-20T22:33:40.145Z,7.03
2023-01-20T22:36:07.173Z,6.73
2023-01-20T22:38:34.168Z,6.03
2023-01-20T22:41:09.074Z,5.93
2023-01-20T22:43:37.748Z,5.97
2023-01-20T22:46:04.773Z,6.10
2023-01-20T22:48:33.518Z,6.27
2023-01-20T22:51:09.421Z,6.67
2023-01-20T22:53:36.638Z,6.43
2023-01-20T22:56:14.736Z,5.80
2023-01-20T22:58:41.895Z,6.67
2023-01-20T23:01:19.882Z,6.13
2023-01-20T23:03:47.296Z,6.63
2023-01-20T23:06:14.729Z,6.10
2023-01-20T23:08:41.988Z,6.47
2023-01-20T23:11:12.337Z,6.57
2023-01-20T23:13:39.709Z,6.33
2023-01-20T23:16:10.066Z,6.17
2023-01-20T23:18:36.903Z,5.80
2023-01-20T23:21:05.921Z,5.77
2023-01-20T23:23:33.007Z,5.83
2023-01-20T23:26:04.994Z,5.87
2023-01-20T23:28:31.984Z,5.33
2023-01-20T23:31:00.581Z,6.00
2023-01-20T23:33:27.484Z,5.13
2023-01-20T23:35:54.025Z,5.60
2023-01-20T23:38:20.618Z,6.00
2023-01-20T23:40:50.221Z,5.43
2023-01-20T23:43:16.828Z,5.83
2023-01-20T23:45:43.444Z,5.83
2023-01-20T23:48:10.519Z,5.77
2023-01-20T23:50:37.134Z,5.70
2023-01-20T23:53:03.735Z,5.90
2023-01-20T23:55:30.380Z,5.47
2023-01-20T23:57:56.971Z,5.80
